createdAt,value
2018-08-04T00:01:40.613Z,15.10
2018-08-04T00:04:08.778Z,15.47
2018-08-04T00:06:37.683Z,15.00
2018-08-04T00:09:09.209Z,15.30
2018-08-04T00:11:38.206Z,15.00
2018-08-04T00:14:07.791Z,15.60
2018-08-04T00:16:37.473Z,15.77
2018-08-04T00:19:06.097Z,15.97
2018-08-04T00:21:35.607Z,16.10
2018-08-04T00:24:03.633Z,15.70
2018-08-04T00:26:32.730Z,15.70
2018-08-04T00:29:01.566Z,15.20
2018-08-04T00:31:31.162Z,15.13
2018-08-04T00:33:59.225Z,14.30
2018-08-04T00:36:27.393Z,14.80
2018-08-04T00:38:55.793Z,14.10
2018-08-04T00:41:23.976Z,15.63
2018-08-04T00:43:52.462Z,14.27
2018-08-04T00:46:21.050Z,14.13
2018-08-04T00:48:49.041Z,14.67
2018-08-04T00:51:17.154Z,15.97
2018-08-04T00:53:45.451Z,15.73
2018-08-04T00:56:13.677Z,15.83
2018-08-04T00:58:41.645Z,15.60
2018-08-04T01:01:09.502Z,15.50
2018-08-04T01:03:37.537Z,14.93
2018-08-04T01:06:05.825Z,15.33
2018-08-04T01:08:33.874Z,13.60
2018-08-04T01:11:02.415Z,14.33
2018-08-04T01:13:31.012Z,15.10
2018-08-04T01:15:58.876Z,14.23
2018-08-04T01:18:26.857Z,14.67
2018-08-04T01:20:55.103Z,15.10
2018-08-04T01:23:23.349Z,14.67
2018-08-04T01:25:51.182Z,13.30
2018-08-04T01:28:19.269Z,14.70
2018-08-04T01:30:47.354Z,14.40
2018-08-04T01:33:15.013Z,13.90
2018-08-04T01:35:42.755Z,14.30
2018-08-04T01:38:11.192Z,14.50
2018-08-04T01:40:39.317Z,15.10
2018-08-04T01:43:08.031Z,15.20
2018-08-04T01:45:36.297Z,15.00
2018-08-04T01:48:04.451Z,13.80
2018-08-04T01:50:32.237Z,13.97
2018-08-04T01:53:00.893Z,15.17
2018-08-04T01:55:28.995Z,14.80
2018-08-04T01:57:56.921Z,14.23
2018-08-04T02:00:25.110Z,13.90
2018-08-04T02:02:53.601Z,14.87
2018-08-04T02:05:21.763Z,15.07
2018-08-04T02:07:49.769Z,15.30
2018-08-04T02:10:17.806Z,14.80
2018-08-04T02:12:45.908Z,14.30
2018-08-04T02:15:14.384Z,14.47
2018-08-04T02:17:42.356Z,15.07
2018-08-04T02:20:10.069Z,15.27
2018-08-04T02:22:38.110Z,14.50
2018-08-04T02:25:06.224Z,15.10
2018-08-04T02:27:34.149Z,14.83
2018-08-04T02:30:02.495Z,14.60
2018-08-04T02:32:31.243Z,14.03
2018-08-04T02:34:59.100Z,14.20
2018-08-04T02:37:27.036Z,14.87
2018-08-04T02:39:54.886Z,14.77
2018-08-04T02:42:22.911Z,14.57
2018-08-04T02:44:50.522Z,15.00
2018-08-04T02:47:18.641Z,14.77
2018-08-04T02:49:49.659Z,14.67
2018-08-04T02:52:17.878Z,13.37
2018-08-04T02:54:45.743Z,14.93
2018-08-04T02:57:13.746Z,13.83
2018-08-04T02:59:41.967Z,14.70
2018-08-04T03:02:09.906Z,15.77
2018-08-04T03:04:38.033Z,14.53
2018-08-04T03:07:06.293Z,14.03
2018-08-04T03:09:34.395Z,14.53
2018-08-04T03:12:02.401Z,14.07
2018-08-04T03:14:30.963Z,15.27
2018-08-04T03:16:59.183Z,14.00
2018-08-04T03:19:27.091Z,13.67
2018-08-04T03:21:55.073Z,13.90
2018-08-04T03:24:22.885Z,13.60
2018-08-04T03:26:50.906Z,14.00
2018-08-04T03:29:19.022Z,14.03
2018-08-04T03:31:47.167Z,13.40
2018-08-04T03:34:14.990Z,14.27
2018-08-04T03:36:42.748Z,14.10
2018-08-04T03:39:11.515Z,13.97
2018-08-04T03:41:40.376Z,13.90
2018-08-04T03:44:08.753Z,14.17
2018-08-04T03:46:37.442Z,13.63
2018-08-04T03:49:05.560Z,14.30
2018-08-04T03:51:33.827Z,13.20
2018-08-04T03:54:01.879Z,14.20
2018-08-04T03:56:29.947Z,13.50
2018-08-04T03:59:04.865Z,14.30
2018-08-04T04:01:33.470Z,15.40
2018-08-04T04:04:01.422Z,15.30
2018-08-04T04:06:29.322Z,15.37
2018-08-04T04:08:57.463Z,14.53
2018-08-04T04:11:25.503Z,15.10
2018-08-04T04:13:54.484Z,13.00
2018-08-04T04:16:22.533Z,14.10
2018-08-04T04:18:50.799Z,14.60
2018-08-04T04:21:18.784Z,13.97
2018-08-04T04:23:46.940Z,13.20
2018-08-04T04:26:15.197Z,13.40
2018-08-04T04:28:43.216Z,14.47
2018-08-04T04:31:11.405Z,14.27
2018-08-04T04:33:39.471Z,15.30
2018-08-04T04:36:07.510Z,14.67
2018-08-04T04:38:35.353Z,14.83
2018-08-04T04:41:03.524Z,15.67
2018-08-04T04:43:31.482Z,14.40
2018-08-04T04:45:59.600Z,13.10
2018-08-04T04:48:27.601Z,14.20
2018-08-04T04:50:55.749Z,13.90
2018-08-04T04:53:23.557Z,14.13
2018-08-04T04:55:51.610Z,15.00
2018-08-04T04:58:19.702Z,15.13
2018-08-04T05:00:48.366Z,13.17
2018-08-04T05:03:16.266Z,13.50
2018-08-04T05:05:44.634Z,14.30
2018-08-04T05:08:12.337Z,13.43
2018-08-04T05:10:40.466Z,15.27
2018-08-04T05:13:08.536Z,15.50
2018-08-04T05:15:36.392Z,14.10
2018-08-04T05:18:04.577Z,14.50
2018-08-04T05:20:32.576Z,15.10
2018-08-04T05:23:01.105Z,13.93
2018-08-04T05:25:29.088Z,15.60
2018-08-04T05:27:57.112Z,15.17
2018-08-04T05:30:25.178Z,14.60
2018-08-04T05:32:53.668Z,15.33
2018-08-04T05:35:21.879Z,16.20
2018-08-04T05:37:50.160Z,15.67
2018-08-04T05:40:18.049Z,16.13
2018-08-04T05:42:47.224Z,16.63
2018-08-04T05:45:15.397Z,17.80
2018-08-04T05:47:43.395Z,19.70
2018-08-04T05:50:11.759Z,21.90
2018-08-04T05:52:39.914Z,22.30
2018-08-04T05:55:07.836Z,18.57
2018-08-04T05:57:35.897Z,18.70
2018-08-04T06:00:04.873Z,18.80
2018-08-04T06:02:32.921Z,16.80
2018-08-04T06:05:01.002Z,15.93
2018-08-04T06:07:29.122Z,15.10
2018-08-04T06:09:57.002Z,16.27
2018-08-04T06:12:25.102Z,15.07
2018-08-04T06:14:54.344Z,15.60
2018-08-04T06:17:22.155Z,15.60
2018-08-04T06:19:50.188Z,15.40
2018-08-04T06:22:18.323Z,15.20
2018-08-04T06:24:46.485Z,14.37
2018-08-04T06:27:14.716Z,15.43
2018-08-04T06:29:42.943Z,15.93
2018-08-04T06:32:10.759Z,13.60
2018-08-04T06:34:39.064Z,13.60
2018-08-04T06:37:07.210Z,14.43
2018-08-04T06:39:35.537Z,14.13
2018-08-04T06:42:03.268Z,14.23
2018-08-04T06:44:31.603Z,13.70
2018-08-04T06:46:59.452Z,13.80
2018-08-04T06:49:27.227Z,14.37
2018-08-04T06:51:55.642Z,15.67
2018-08-04T06:54:23.639Z,13.10
2018-08-04T06:56:51.551Z,14.93
2018-08-04T06:59:19.889Z,15.60
2018-08-04T07:01:47.819Z,14.00
2018-08-04T07:04:15.957Z,13.60
2018-08-04T07:06:44.151Z,14.50
2018-08-04T07:09:11.823Z,13.13
2018-08-04T07:11:39.922Z,13.30
2018-08-04T07:14:09.837Z,13.03
2018-08-04T07:16:38.437Z,13.30
2018-08-04T07:19:06.696Z,14.97
2018-08-04T07:21:36.464Z,13.60
2018-08-04T07:24:04.643Z,15.20
2018-08-04T07:26:32.523Z,13.27
2018-08-04T07:29:00.757Z,14.93
2018-08-04T07:31:29.311Z,14.00
2018-08-04T07:33:57.423Z,13.83
2018-08-04T07:36:25.650Z,14.37
2018-08-04T07:38:54.269Z,12.57
2018-08-04T07:41:22.822Z,13.07
2018-08-04T07:43:50.843Z,12.03
2018-08-04T07:46:19.044Z,12.00
2018-08-04T07:48:46.980Z,12.90
2018-08-04T07:51:15.053Z,12.33
2018-08-04T07:53:43.219Z,12.70
2018-08-04T07:56:11.265Z,12.83
2018-08-04T07:58:39.524Z,13.00
2018-08-04T08:01:07.597Z,13.27
2018-08-04T08:03:35.957Z,12.93
2018-08-04T08:06:04.100Z,12.97
2018-08-04T08:08:32.206Z,12.97
2018-08-04T08:11:01.277Z,10.90
2018-08-04T08:13:29.485Z,12.20
2018-08-04T08:15:57.978Z,11.30
2018-08-04T08:18:26.348Z,11.37
2018-08-04T08:20:54.447Z,11.90
2018-08-04T08:23:24.157Z,11.53
2018-08-04T08:26:02.962Z,12.53
2018-08-04T08:28:30.956Z,11.90
2018-08-04T08:30:59.164Z,12.93
2018-08-04T08:33:27.642Z,12.47
2018-08-04T08:35:55.851Z,11.77
2018-08-04T08:38:25.107Z,12.33
2018-08-04T08:40:53.172Z,11.63
2018-08-04T08:43:21.341Z,11.13
2018-08-04T08:45:49.517Z,12.40
2018-08-04T08:48:17.895Z,12.50
2018-08-04T08:50:46.261Z,12.47
2018-08-04T08:53:14.488Z,12.23
2018-08-04T08:55:42.680Z,11.23
2018-08-04T08:58:10.929Z,11.93
2018-08-04T09:00:38.954Z,11.30
2018-08-04T09:03:07.629Z,12.43
2018-08-04T09:05:36.272Z,11.90
2018-08-04T09:08:05.460Z,11.47
2018-08-04T09:10:33.446Z,12.30
2018-08-04T09:13:01.621Z,11.83
2018-08-04T09:15:29.950Z,11.53
2018-08-04T09:17:58.959Z,11.10
2018-08-04T09:20:27.066Z,11.63
2018-08-04T09:22:56.604Z,11.70
2018-08-04T09:25:24.799Z,11.83
2018-08-04T09:27:53.137Z,11.90
2018-08-04T09:30:21.221Z,11.33
2018-08-04T09:32:49.996Z,10.90
2018-08-04T09:35:19.029Z,12.10
2018-08-04T09:37:47.171Z,12.10
2018-08-04T09:40:15.762Z,12.03
2018-08-04T09:42:45.423Z,12.63
2018-08-04T09:45:13.462Z,11.60
2018-08-04T09:47:41.819Z,11.60
2018-08-04T09:50:12.015Z,10.70
2018-08-04T09:52:40.944Z,12.17
2018-08-04T09:55:10.856Z,11.27
2018-08-04T09:57:39.842Z,11.13
2018-08-04T10:00:16.660Z,10.50
2018-08-04T10:02:45.458Z,10.20
2018-08-04T10:05:13.542Z,10.93
2018-08-04T10:07:42.176Z,10.50
2018-08-04T10:10:10.433Z,10.77
2018-08-04T10:12:38.579Z,9.87
2018-08-04T10:15:09.115Z,9.60
2018-08-04T10:17:37.689Z,9.67
2018-08-04T10:20:07.562Z,9.70
2018-08-04T10:22:35.866Z,10.60
2018-08-04T10:25:04.554Z,10.77
2018-08-04T10:27:32.546Z,9.70
2018-08-04T10:30:00.481Z,10.17
2018-08-04T10:32:28.847Z,10.07
2018-08-04T10:34:57.358Z,9.80
2018-08-04T10:37:25.489Z,10.30
2018-08-04T10:39:53.998Z,9.93
2018-08-04T10:42:21.977Z,10.27
2018-08-04T10:44:50.065Z,10.00
2018-08-04T10:47:17.944Z,9.90
2018-08-04T10:49:45.886Z,10.50
2018-08-04T10:52:14.361Z,9.40
2018-08-04T10:54:42.524Z,9.53
2018-08-04T10:57:10.331Z,10.00
2018-08-04T10:59:38.433Z,8.90
2018-08-04T11:02:07.152Z,8.70
2018-08-04T11:04:35.213Z,9.30
2018-08-04T11:07:03.202Z,9.30
2018-08-04T11:09:31.683Z,9.77
2018-08-04T11:11:59.911Z,8.43
2018-08-04T11:14:28.308Z,9.00
2018-08-04T11:16:56.404Z,8.63
2018-08-04T11:19:24.974Z,8.37
2018-08-04T11:21:52.866Z,8.27
2018-08-04T11:24:21.022Z,8.57
2018-08-04T11:26:49.098Z,8.73
2018-08-04T11:29:17.508Z,8.87
2018-08-04T11:31:47.625Z,8.20
2018-08-04T11:34:16.567Z,7.73
2018-08-04T11:36:44.510Z,8.20
2018-08-04T11:39:13.529Z,7.50
2018-08-04T11:41:41.578Z,7.97
2018-08-04T11:44:09.930Z,7.40
2018-08-04T11:46:38.545Z,7.90
2018-08-04T11:49:06.727Z,7.43
2018-08-04T11:51:36.381Z,8.90
2018-08-04T11:54:04.823Z,8.47
2018-08-04T11:56:33.672Z,9.10
2018-08-04T11:59:02.410Z,9.20
2018-08-04T12:01:30.579Z,8.50
2018-08-04T12:03:58.632Z,8.63
2018-08-04T12:06:27.243Z,8.23
2018-08-04T12:08:55.469Z,8.33
2018-08-04T12:11:23.754Z,9.73
2018-08-04T12:13:52.961Z,8.33
2018-08-04T12:16:20.962Z,8.30
2018-08-04T12:18:50.029Z,8.13
2018-08-04T12:21:18.119Z,8.30
2018-08-04T12:23:46.405Z,8.90
2018-08-04T12:26:16.167Z,8.37
2018-08-04T12:28:44.588Z,7.30
2018-08-04T12:31:12.670Z,7.97
2018-08-04T12:33:41.396Z,8.10
2018-08-04T12:36:09.409Z,8.03
2018-08-04T12:38:37.692Z,7.00
2018-08-04T12:41:05.958Z,8.20
2018-08-04T12:43:34.244Z,6.80
2018-08-04T12:46:02.912Z,7.63
2018-08-04T12:48:31.331Z,7.63
2018-08-04T12:51:01.014Z,7.40
2018-08-04T12:53:28.862Z,7.97
2018-08-04T12:55:58.624Z,7.40
2018-08-04T12:58:27.427Z,7.93
2018-08-04T13:00:56.166Z,8.57
2018-08-04T13:03:24.775Z,8.17
2018-08-04T13:05:52.748Z,8.10
2018-08-04T13:08:21.292Z,7.60
2018-08-04T13:10:50.431Z,7.87
2018-08-04T13:13:19.063Z,7.23
2018-08-04T13:15:48.356Z,7.10
2018-08-04T13:18:17.123Z,7.00
2018-08-04T13:20:45.963Z,7.23
2018-08-04T13:23:14.726Z,7.83
2018-08-04T13:25:43.349Z,7.37
2018-08-04T13:28:12.492Z,7.47
2018-08-04T13:30:40.889Z,6.63
2018-08-04T13:33:10.560Z,7.00
2018-08-04T13:35:38.697Z,7.47
2018-08-04T13:38:07.722Z,6.53
2018-08-04T13:40:36.787Z,6.70
2018-08-04T13:43:05.312Z,8.17
2018-08-04T13:45:33.387Z,7.30
2018-08-04T13:48:01.997Z,7.17
2018-08-04T13:50:30.311Z,7.23
2018-08-04T13:52:58.556Z,7.80
2018-08-04T13:55:26.656Z,7.20
2018-08-04T13:57:55.327Z,7.43
2018-08-04T14:00:23.714Z,7.10
2018-08-04T14:02:54.426Z,7.00
2018-08-04T14:05:24.076Z,6.37
2018-08-04T14:07:54.884Z,7.50
2018-08-04T14:10:23.475Z,7.60
2018-08-04T14:12:52.188Z,7.17
2018-08-04T14:15:21.730Z,6.73
2018-08-04T14:17:49.946Z,7.10
2018-08-04T14:20:18.718Z,7.10
2018-08-04T14:22:47.083Z,7.30
2018-08-04T14:25:15.695Z,7.60
2018-08-04T14:27:44.019Z,7.03
2018-08-04T14:30:12.217Z,7.00
2018-08-04T14:32:40.761Z,7.20
2018-08-04T14:35:09.149Z,7.27
2018-08-04T14:37:38.106Z,7.70
2018-08-04T14:40:06.941Z,7.33
2018-08-04T14:42:35.131Z,9.27
2018-08-04T14:45:04.359Z,7.70
2018-08-04T14:47:32.059Z,7.57
2018-08-04T14:50:01.151Z,7.63
2018-08-04T14:52:29.801Z,7.40
2018-08-04T14:54:58.804Z,7.47
2018-08-04T14:57:27.201Z,7.20
2018-08-04T14:59:55.202Z,6.70
2018-08-04T15:02:23.406Z,7.70
2018-08-04T15:04:51.590Z,6.67
2018-08-04T15:07:19.537Z,7.53
2018-08-04T15:09:48.085Z,8.10
2018-08-04T15:12:16.294Z,7.90
2018-08-04T15:14:45.054Z,7.90
2018-08-04T15:17:13.033Z,7.20
2018-08-04T15:19:41.121Z,7.57
2018-08-04T15:22:09.139Z,8.50
2018-08-04T15:24:37.200Z,7.83
2018-08-04T15:27:05.359Z,7.53
2018-08-04T15:29:33.349Z,8.10
2018-08-04T15:32:01.554Z,7.20
2018-08-04T15:34:30.247Z,7.60
2018-08-04T15:36:58.756Z,7.40
2018-08-04T15:39:27.340Z,7.20
2018-08-04T15:41:56.033Z,6.97
2018-08-04T15:44:24.310Z,7.70
2018-08-04T15:46:52.972Z,7.33
2018-08-04T15:49:21.148Z,7.70
2018-08-04T15:51:50.276Z,7.07
2018-08-04T15:54:18.556Z,7.37
2018-08-04T15:56:47.047Z,7.10
2018-08-04T15:59:15.617Z,6.90
2018-08-04T16:01:46.111Z,7.37
2018-08-04T16:04:14.488Z,9.37
2018-08-04T16:06:45.847Z,7.40
2018-08-04T16:09:14.936Z,7.93
2018-08-04T16:11:43.520Z,7.87
2018-08-04T16:14:12.666Z,8.10
2018-08-04T16:16:44.325Z,7.67
2018-08-04T16:19:12.888Z,7.10
2018-08-04T16:21:42.148Z,7.40
2018-08-04T16:24:10.751Z,8.07
2018-08-04T16:26:40.901Z,6.63
2018-08-04T16:29:10.649Z,7.57
2018-08-04T16:31:42.449Z,7.67
2018-08-04T16:34:14.059Z,7.00
2018-08-04T16:36:43.110Z,7.80
2018-08-04T16:39:11.996Z,7.03
2018-08-04T16:41:40.267Z,7.43
2018-08-04T16:44:08.522Z,6.93
2018-08-04T16:46:38.155Z,8.07
2018-08-04T16:49:06.488Z,6.63
2018-08-04T16:51:36.321Z,7.47
2018-08-04T16:54:04.624Z,7.10
2018-08-04T16:56:33.009Z,7.07
2018-08-04T16:59:01.930Z,7.30
2018-08-04T17:01:30.138Z,6.93
2018-08-04T17:03:58.445Z,6.87
2018-08-04T17:06:26.483Z,6.90
2018-08-04T17:08:54.782Z,7.23
2018-08-04T17:11:23.307Z,6.83
2018-08-04T17:13:52.469Z,6.93
2018-08-04T17:16:20.753Z,7.03
2018-08-04T17:18:49.194Z,7.07
2018-08-04T17:21:18.085Z,6.50
2018-08-04T17:23:46.169Z,6.77
2018-08-04T17:26:14.786Z,6.90
2018-08-04T17:28:42.829Z,7.03
2018-08-04T17:31:13.076Z,7.00
2018-08-04T17:33:41.653Z,7.37
2018-08-04T17:36:10.984Z,7.50
2018-08-04T17:38:40.361Z,8.03
2018-08-04T17:41:09.873Z,8.90
2018-08-04T17:43:38.512Z,11.77
2018-08-04T17:46:08.262Z,9.20
2018-08-04T17:48:36.122Z,24.17
2018-08-04T17:51:04.347Z,24.03
2018-08-04T17:53:32.661Z,18.77
2018-08-04T17:56:00.659Z,18.60
2018-08-04T17:58:28.863Z,15.43
2018-08-04T18:00:56.921Z,11.77
2018-08-04T18:03:24.772Z,11.50
2018-08-04T18:05:53.002Z,10.57
2018-08-04T18:08:21.162Z,10.93
2018-08-04T18:10:49.235Z,11.43
2018-08-04T18:13:17.635Z,9.27
2018-08-04T18:15:45.986Z,10.57
2018-08-04T18:18:13.741Z,11.40
2018-08-04T18:20:41.816Z,9.37
2018-08-04T18:23:11.270Z,8.70
2018-08-04T18:25:39.534Z,8.60
2018-08-04T18:28:07.386Z,9.37
2018-08-04T18:30:35.462Z,9.37
2018-08-04T18:33:04.233Z,9.50
2018-08-04T18:35:32.704Z,10.40
2018-08-04T18:38:00.679Z,11.43
2018-08-04T18:40:29.190Z,11.50
2018-08-04T18:42:57.441Z,12.37
2018-08-04T18:45:25.483Z,13.43
2018-08-04T18:47:53.438Z,12.57
2018-08-04T18:50:21.319Z,11.57
2018-08-04T18:52:49.380Z,12.23
2018-08-04T18:55:17.994Z,11.93
2018-08-04T18:57:46.881Z,13.40
2018-08-04T19:00:15.102Z,13.30
2018-08-04T19:02:43.539Z,13.00
2018-08-04T19:05:11.819Z,12.70
2018-08-04T19:07:39.661Z,13.83
2018-08-04T19:10:08.125Z,12.10
2018-08-04T19:12:36.005Z,12.77
2018-08-04T19:15:04.653Z,13.90
2018-08-04T19:17:32.609Z,14.43
2018-08-04T19:20:01.806Z,14.43
2018-08-04T19:22:30.263Z,13.97
2018-08-04T19:24:58.929Z,13.83
2018-08-04T19:27:27.043Z,14.23
2018-08-04T19:29:54.972Z,13.10
2018-08-04T19:32:23.693Z,14.77
2018-08-04T19:34:51.814Z,13.10
2018-08-04T19:37:20.099Z,12.97
2018-08-04T19:39:48.329Z,14.07
2018-08-04T19:42:17.251Z,13.80
2018-08-04T19:44:45.495Z,14.50
2018-08-04T19:47:13.812Z,13.73
2018-08-04T19:49:42.258Z,14.60
2018-08-04T19:52:10.777Z,13.87
2018-08-04T19:54:38.885Z,13.23
2018-08-04T19:57:07.275Z,13.80
2018-08-04T19:59:35.424Z,13.53
2018-08-04T20:02:03.868Z,13.67
2018-08-04T20:04:33.186Z,14.20
2018-08-04T20:07:01.334Z,12.30
2018-08-04T20:09:30.012Z,13.53
2018-08-04T20:11:58.785Z,14.23
2018-08-04T20:14:28.381Z,13.70
2018-08-04T20:16:57.222Z,12.27
2018-08-04T20:19:25.978Z,13.00
2018-08-04T20:21:54.951Z,14.23
2018-08-04T20:24:23.181Z,14.90
2018-08-04T20:26:51.790Z,14.10
2018-08-04T20:29:20.154Z,13.30
2018-08-04T20:31:48.321Z,13.67
2018-08-04T20:34:16.700Z,13.80
2018-08-04T20:36:44.856Z,13.73
2018-08-04T20:39:14.819Z,13.70
2018-08-04T20:41:43.423Z,14.90
2018-08-04T20:44:14.668Z,14.10
2018-08-04T20:46:42.723Z,13.80
2018-08-04T20:49:10.625Z,13.20
2018-08-04T20:51:38.407Z,13.30
2018-08-04T20:54:08.310Z,14.33
2018-08-04T20:56:37.343Z,14.03
2018-08-04T20:59:05.650Z,13.10
2018-08-04T21:02:06.442Z,13.47
2018-08-04T21:04:36.236Z,14.03
2018-08-04T21:07:05.525Z,14.43
2018-08-04T21:09:35.089Z,14.30
2018-08-04T21:12:03.557Z,13.50
2018-08-04T21:14:33.465Z,13.83
2018-08-04T21:17:01.759Z,13.10
2018-08-04T21:19:30.288Z,14.50
2018-08-04T21:21:59.557Z,12.57
2018-08-04T21:24:28.040Z,13.07
2018-08-04T21:29:30.134Z,13.27
2018-08-04T21:31:58.869Z,14.00
2018-08-04T21:34:27.322Z,13.00
2018-08-04T21:36:56.129Z,13.93
2018-08-04T21:39:25.006Z,13.50
2018-08-04T21:41:53.000Z,14.13
2018-08-04T21:44:21.292Z,14.00
2018-08-04T21:46:50.484Z,14.40
2018-08-04T21:49:20.886Z,13.37
2018-08-04T21:51:50.026Z,13.80
2018-08-04T21:54:19.917Z,13.70
2018-08-04T21:56:50.370Z,14.00
2018-08-04T21:59:18.218Z,13.43
2018-08-04T22:01:51.808Z,13.73
2018-08-04T22:04:19.523Z,14.00
2018-08-04T22:07:59.297Z,13.70
2018-08-04T22:10:27.861Z,13.60
2018-08-04T22:12:56.092Z,13.43
2018-08-04T22:15:24.292Z,13.73
2018-08-04T22:17:52.348Z,13.83
2018-08-04T22:20:21.034Z,13.10
2018-08-04T22:22:49.450Z,13.07
2018-08-04T22:25:19.109Z,12.67
2018-08-04T22:27:47.189Z,13.23
2018-08-04T22:30:17.873Z,13.07
2018-08-04T22:32:46.417Z,11.87
2018-08-04T22:35:14.722Z,12.70
2018-08-04T22:37:43.208Z,13.43
2018-08-04T22:40:12.358Z,12.50
2018-08-04T22:42:40.564Z,13.03
2018-08-04T22:46:21.584Z,12.00
2018-08-04T22:48:50.991Z,12.20
2018-08-04T22:51:25.434Z,12.40
2018-08-04T22:53:53.512Z,12.33
2018-08-04T22:56:21.416Z,12.40
2018-08-04T22:58:49.287Z,11.97
2018-08-04T23:01:17.249Z,12.20
2018-08-04T23:06:13.185Z,12.50
2018-08-04T23:08:41.141Z,11.77
2018-08-04T23:11:09.749Z,11.43
2018-08-04T23:13:38.103Z,12.03
2018-08-04T23:16:06.025Z,12.73
2018-08-04T23:18:34.434Z,13.13
2018-08-04T23:21:02.871Z,13.10
2018-08-04T23:23:30.579Z,12.10
2018-08-04T23:25:58.622Z,12.50
2018-08-04T23:28:26.791Z,12.03
2018-08-04T23:30:54.723Z,12.40
2018-08-04T23:33:22.938Z,13.13
2018-08-04T23:35:50.899Z,13.23
2018-08-04T23:38:18.751Z,12.43
2018-08-04T23:40:46.799Z,11.93
2018-08-04T23:43:15.327Z,11.97
2018-08-04T23:45:43.247Z,12.27
2018-08-04T23:48:11.167Z,11.60
2018-08-04T23:50:39.218Z,11.90
2018-08-04T23:53:07.595Z,12.80
2018-08-04T23:55:36.128Z,10.33
2018-08-04T23:58:03.884Z,11.60
